createdAt,value
2022-09-14T00:00:14.858Z,41.86
2022-09-14T00:01:25.207Z,51.96
2022-09-14T00:02:17.107Z,60.59
2022-09-14T00:03:14.880Z,59.73
2022-09-14T00:04:14.841Z,43.09
2022-09-14T00:05:14.818Z,42.71
2022-09-14T00:06:14.847Z,42.47
2022-09-14T00:07:14.837Z,46.60
2022-09-14T00:08:14.805Z,56.35
2022-09-14T00:09:14.833Z,42.22
2022-09-14T00:10:14.793Z,42.19
2022-09-14T00:11:14.786Z,42.09
2022-09-14T00:12:14.801Z,42.73
2022-09-14T00:13:14.783Z,56.87
2022-09-14T00:14:14.757Z,45.03
2022-09-14T00:15:14.778Z,55.88
2022-09-14T00:16:14.791Z,60.87
2022-09-14T00:17:14.769Z,56.31
2022-09-14T00:18:14.771Z,55.89
2022-09-14T00:19:14.733Z,44.03
2022-09-14T00:20:14.733Z,42.97
2022-09-14T00:21:14.729Z,52.31
2022-09-14T00:22:14.743Z,52.28
2022-09-14T00:23:14.718Z,56.15
2022-09-14T00:24:14.717Z,52.53
2022-09-14T00:25:14.694Z,42.67
2022-09-14T00:26:14.705Z,53.77
2022-09-14T00:27:14.721Z,57.15
2022-09-14T00:28:14.685Z,56.79
2022-09-14T00:29:14.677Z,53.86
2022-09-14T00:30:14.700Z,44.01
2022-09-14T00:31:14.852Z,61.54
2022-09-14T00:32:14.711Z,57.71
2022-09-14T00:33:14.673Z,50.44
2022-09-14T00:34:14.641Z,53.53
2022-09-14T00:35:14.643Z,43.59
2022-09-14T00:36:14.641Z,43.37
2022-09-14T00:37:14.629Z,43.63
2022-09-14T00:38:14.612Z,43.50
2022-09-14T00:39:14.629Z,44.39
2022-09-14T00:40:14.720Z,54.99
2022-09-14T00:41:14.604Z,43.06
2022-09-14T00:42:14.610Z,48.38
2022-09-14T00:43:14.593Z,49.56
2022-09-14T00:44:14.587Z,43.23
2022-09-14T00:45:14.580Z,47.39
2022-09-14T00:46:14.632Z,45.30
2022-09-14T00:47:14.573Z,51.14
2022-09-14T00:48:14.634Z,51.06
2022-09-14T00:49:14.549Z,54.79
2022-09-14T00:50:14.545Z,43.90
2022-09-14T00:51:14.557Z,52.05
2022-09-14T00:52:14.554Z,45.64
2022-09-14T00:53:14.530Z,43.86
2022-09-14T00:54:14.515Z,44.53
2022-09-14T00:55:14.519Z,63.54
2022-09-14T00:56:14.509Z,44.57
2022-09-14T00:57:14.532Z,43.49
2022-09-14T00:58:14.510Z,43.35
2022-09-14T00:59:14.493Z,54.37
2022-09-14T01:00:14.500Z,43.27
2022-09-14T01:01:14.521Z,43.49
2022-09-14T01:02:14.519Z,44.20
2022-09-14T01:03:14.484Z,43.82
2022-09-14T01:04:14.484Z,43.20
2022-09-14T01:05:14.451Z,43.01
2022-09-14T01:06:14.452Z,43.05
2022-09-14T01:07:14.436Z,42.83
2022-09-14T01:08:14.434Z,43.08
2022-09-14T01:09:14.449Z,43.71
2022-09-14T01:10:14.425Z,44.05
2022-09-14T01:11:14.400Z,53.36
2022-09-14T01:12:14.412Z,54.92
2022-09-14T01:13:14.394Z,44.65
2022-09-14T01:14:14.400Z,44.50
2022-09-14T01:15:14.412Z,53.85
2022-09-14T01:16:14.473Z,44.75
2022-09-14T01:17:14.378Z,60.02
2022-09-14T01:18:14.388Z,63.94
2022-09-14T01:19:14.377Z,64.20
2022-09-14T01:20:14.356Z,44.26
2022-09-14T01:21:14.346Z,52.80
2022-09-14T01:22:14.348Z,52.97
2022-09-14T01:23:14.327Z,52.66
2022-09-14T01:24:14.336Z,56.83
2022-09-14T01:25:14.333Z,43.62
2022-09-14T01:26:14.296Z,43.62
2022-09-14T01:27:14.300Z,44.08
2022-09-14T01:28:14.279Z,49.49
2022-09-14T01:29:14.290Z,48.26
2022-09-14T01:30:14.283Z,44.47
2022-09-14T01:31:14.317Z,45.29
2022-09-14T01:32:14.278Z,55.24
2022-09-14T01:33:14.316Z,44.65
2022-09-14T01:34:14.268Z,55.21
2022-09-14T01:35:16.109Z,50.77
2022-09-14T01:36:15.256Z,47.39
2022-09-14T01:37:14.236Z,44.31
2022-09-14T01:38:14.225Z,44.67
2022-09-14T01:39:14.246Z,45.24
2022-09-14T01:40:14.262Z,59.79
2022-09-14T01:41:14.226Z,52.28
2022-09-14T01:42:14.251Z,45.64
2022-09-14T01:43:14.193Z,49.53
2022-09-14T01:44:14.197Z,51.36
2022-09-14T01:45:14.202Z,58.62
2022-09-14T01:46:14.231Z,47.52
2022-09-14T01:47:14.186Z,59.27
2022-09-14T01:48:14.178Z,65.82
2022-09-14T01:49:14.165Z,55.87
2022-09-14T01:50:14.188Z,48.62
2022-09-14T01:51:14.234Z,49.11
2022-09-14T01:52:14.144Z,48.45
2022-09-14T01:53:14.145Z,61.51
2022-09-14T01:54:14.151Z,50.18
2022-09-14T01:55:14.112Z,58.06
2022-09-14T01:56:14.916Z,56.60
2022-09-14T01:57:14.101Z,48.03
2022-09-14T01:58:14.121Z,56.30
2022-09-14T01:59:14.088Z,61.16
2022-09-14T02:00:14.092Z,51.35
2022-09-14T02:01:14.195Z,51.99
2022-09-14T02:02:14.125Z,52.53
2022-09-14T02:03:14.067Z,50.98
2022-09-14T02:04:14.075Z,57.63
2022-09-14T02:05:14.061Z,52.57
2022-09-14T02:06:14.052Z,52.60
2022-09-14T02:07:14.082Z,48.22
2022-09-14T02:08:14.036Z,48.25
2022-09-14T02:09:14.028Z,56.66
2022-09-14T02:10:14.027Z,61.92
2022-09-14T02:11:14.031Z,48.43
2022-09-14T02:12:14.015Z,47.45
2022-09-14T02:13:14.051Z,57.23
2022-09-14T02:14:14.004Z,55.50
2022-09-14T02:15:13.995Z,47.12
2022-09-14T02:16:14.037Z,47.31
2022-09-14T02:17:13.973Z,56.01
2022-09-14T02:18:13.995Z,48.97
2022-09-14T02:19:14.000Z,56.46
2022-09-14T02:20:13.952Z,48.87
2022-09-14T02:21:13.943Z,48.52
2022-09-14T02:22:13.985Z,62.77
2022-09-14T02:23:13.944Z,51.94
2022-09-14T02:24:13.952Z,53.09
2022-09-14T02:25:13.933Z,54.30
2022-09-14T02:26:13.924Z,50.22
2022-09-14T02:27:13.899Z,53.12
2022-09-14T02:28:13.919Z,59.80
2022-09-14T02:29:46.355Z,64.67
2022-09-14T02:30:13.895Z,50.31
2022-09-14T02:31:13.916Z,60.74
2022-09-14T02:32:13.876Z,48.90
2022-09-14T02:33:13.868Z,47.70
2022-09-14T02:34:13.855Z,56.97
2022-09-14T02:35:13.881Z,56.22
2022-09-14T02:36:13.847Z,45.94
2022-09-14T02:37:13.852Z,46.85
2022-09-14T02:38:13.844Z,53.82
2022-09-14T02:39:13.823Z,64.59
2022-09-14T02:40:13.944Z,59.90
2022-09-14T02:41:13.818Z,55.96
2022-09-14T02:42:13.826Z,60.44
2022-09-14T02:43:13.819Z,68.04
2022-09-14T02:44:13.825Z,57.47
2022-09-14T02:45:13.870Z,46.94
2022-09-14T02:46:13.822Z,46.47
2022-09-14T02:47:13.846Z,46.42
2022-09-14T02:48:13.782Z,55.66
2022-09-14T02:49:13.754Z,69.00
2022-09-14T02:50:13.766Z,63.88
2022-09-14T02:51:13.763Z,51.18
2022-09-14T02:52:13.743Z,56.57
2022-09-14T02:53:13.743Z,57.77
2022-09-14T02:54:13.734Z,65.68
2022-09-14T02:55:13.735Z,50.55
2022-09-14T02:56:13.739Z,57.15
2022-09-14T02:57:13.727Z,67.16
2022-09-14T02:58:13.758Z,65.79
2022-09-14T02:59:13.718Z,69.23
2022-09-14T03:00:13.721Z,57.35
2022-09-14T03:01:13.752Z,66.48
2022-09-14T03:02:13.736Z,56.56
2022-09-14T03:03:13.675Z,52.73
2022-09-14T03:04:13.669Z,65.33
2022-09-14T03:05:13.681Z,62.89
2022-09-14T03:06:13.665Z,70.79
2022-09-14T03:07:13.696Z,59.74
2022-09-14T03:08:13.636Z,53.57
2022-09-14T03:09:13.660Z,65.01
2022-09-14T03:10:13.624Z,70.30
2022-09-14T03:11:13.719Z,61.63
2022-09-14T03:12:13.621Z,62.08
2022-09-14T03:13:13.604Z,62.11
2022-09-14T03:14:13.612Z,69.49
2022-09-14T03:15:13.606Z,65.58
2022-09-14T03:16:13.614Z,58.93
2022-09-14T03:17:13.596Z,58.59
2022-09-14T03:18:14.605Z,68.94
2022-09-14T03:19:14.580Z,65.33
2022-09-14T03:20:13.564Z,70.50
2022-09-14T03:21:13.573Z,69.12
2022-09-14T03:22:13.577Z,70.90
2022-09-14T03:23:13.554Z,69.23
2022-09-14T03:24:13.553Z,67.16
2022-09-14T03:25:13.529Z,69.64
2022-09-14T03:26:13.524Z,70.28
2022-09-14T03:27:13.514Z,67.05
2022-09-14T03:28:13.504Z,69.84
2022-09-14T03:29:13.504Z,69.11
2022-09-14T03:30:13.513Z,68.17
2022-09-14T03:31:13.585Z,65.36
2022-09-14T03:32:13.489Z,67.40
2022-09-14T03:33:13.475Z,73.37
2022-09-14T03:34:13.476Z,69.96
2022-09-14T03:35:13.464Z,70.18
2022-09-14T03:36:13.473Z,71.49
2022-09-14T03:37:13.453Z,69.01
2022-09-14T03:38:13.432Z,74.88
2022-09-14T03:39:13.432Z,75.83
2022-09-14T03:40:15.940Z,75.62
2022-09-14T03:41:13.455Z,70.98
2022-09-14T03:42:13.419Z,62.81
2022-09-14T03:43:13.413Z,70.05
2022-09-14T03:44:13.396Z,74.62
2022-09-14T03:45:13.412Z,69.10
2022-09-14T03:46:13.455Z,73.53
2022-09-14T03:47:13.380Z,72.33
2022-09-14T03:48:13.376Z,69.55
2022-09-14T03:49:13.364Z,68.24
2022-09-14T03:50:13.356Z,63.35
2022-09-14T03:51:14.377Z,72.83
2022-09-14T03:52:13.356Z,71.44
2022-09-14T03:53:13.332Z,70.77
2022-09-14T03:54:13.356Z,72.98
2022-09-14T03:55:13.331Z,70.46
2022-09-14T03:56:13.316Z,66.98
2022-09-14T03:57:13.331Z,74.12
2022-09-14T03:58:13.324Z,68.92
2022-09-14T03:59:13.302Z,69.90
2022-09-14T04:00:13.306Z,67.14
2022-09-14T04:01:13.283Z,70.45
2022-09-14T04:02:13.354Z,72.50
2022-09-14T04:03:13.314Z,66.32
2022-09-14T04:04:13.263Z,72.81
2022-09-14T04:05:13.268Z,70.76
2022-09-14T04:06:13.264Z,65.17
2022-09-14T04:07:13.251Z,72.81
2022-09-14T04:08:13.275Z,68.24
2022-09-14T04:09:13.227Z,66.02
2022-09-14T04:10:13.224Z,71.11
2022-09-14T04:11:13.219Z,67.16
2022-09-14T04:12:13.228Z,74.25
2022-09-14T04:13:13.215Z,73.18
2022-09-14T04:14:13.212Z,72.79
2022-09-14T04:15:13.357Z,71.56
2022-09-14T04:16:13.238Z,68.60
2022-09-14T04:17:13.167Z,72.19
2022-09-14T04:18:13.168Z,60.38
2022-09-14T04:19:13.175Z,71.34
2022-09-14T04:20:13.190Z,72.31
2022-09-14T04:21:13.153Z,76.17
2022-09-14T04:22:13.168Z,70.25
2022-09-14T04:23:13.144Z,74.36
2022-09-14T04:24:15.843Z,72.37
2022-09-14T04:25:14.172Z,66.05
2022-09-14T04:26:13.128Z,73.62
2022-09-14T04:27:13.119Z,75.99
2022-09-14T04:28:20.848Z,73.00
2022-09-14T04:29:15.106Z,70.14
2022-09-14T04:30:13.114Z,75.22
2022-09-14T04:31:13.213Z,76.61
2022-09-14T04:32:13.093Z,74.08
2022-09-14T04:33:13.090Z,70.68
2022-09-14T04:34:13.092Z,75.38
2022-09-14T04:35:13.063Z,68.53
2022-09-14T04:36:14.083Z,75.24
2022-09-14T04:37:13.067Z,75.37
2022-09-14T04:38:13.047Z,74.00
2022-09-14T04:39:13.042Z,73.08
2022-09-14T04:40:13.172Z,77.19
2022-09-14T04:41:13.052Z,71.68
2022-09-14T04:42:13.010Z,76.39
2022-09-14T04:43:13.015Z,74.99
2022-09-14T04:44:13.012Z,75.19
2022-09-14T04:45:13.023Z,72.62
2022-09-14T04:46:13.080Z,71.94
2022-09-14T04:47:13.028Z,74.95
2022-09-14T04:48:12.974Z,71.09
2022-09-14T04:49:12.996Z,76.72
2022-09-14T04:50:12.975Z,71.52
2022-09-14T04:51:12.959Z,73.10
2022-09-14T04:52:13.031Z,74.71
2022-09-14T04:53:12.968Z,71.64
2022-09-14T04:54:12.955Z,74.81
2022-09-14T04:55:12.929Z,72.11
2022-09-14T04:56:13.509Z,78.65
2022-09-14T04:57:12.913Z,74.05
2022-09-14T04:58:12.998Z,71.79
2022-09-14T04:59:12.936Z,68.99
2022-09-14T05:00:13.552Z,72.32
2022-09-14T05:01:12.926Z,74.24
2022-09-14T05:02:12.961Z,67.93
2022-09-14T05:03:13.008Z,76.18
2022-09-14T05:04:12.918Z,73.19
2022-09-14T05:05:12.903Z,74.26
2022-09-14T05:06:12.862Z,76.13
2022-09-14T05:07:12.926Z,74.13
2022-09-14T05:08:12.918Z,73.17
2022-09-14T05:09:12.835Z,72.42
2022-09-14T05:10:12.855Z,73.98
2022-09-14T05:11:12.823Z,70.64
2022-09-14T05:12:12.819Z,76.59
2022-09-14T05:13:14.064Z,74.40
2022-09-14T05:14:12.811Z,71.75
2022-09-14T05:15:12.814Z,69.17
2022-09-14T05:16:12.841Z,74.45
2022-09-14T05:17:12.820Z,78.14
2022-09-14T05:18:12.796Z,69.80
2022-09-14T05:19:12.791Z,71.58
2022-09-14T05:20:12.782Z,74.25
2022-09-14T05:21:12.757Z,69.00
2022-09-14T05:22:12.753Z,75.45
2022-09-14T05:23:13.452Z,69.53
2022-09-14T05:24:12.758Z,77.32
2022-09-14T05:25:12.744Z,78.04
2022-09-14T05:26:12.720Z,73.03
2022-09-14T05:27:12.760Z,72.53
2022-09-14T05:28:12.705Z,73.53
2022-09-14T05:29:12.697Z,75.22
2022-09-14T05:30:12.737Z,76.02
2022-09-14T05:31:12.720Z,70.22
2022-09-14T05:32:12.685Z,73.62
2022-09-14T05:33:12.677Z,74.15
2022-09-14T05:34:12.706Z,74.12
2022-09-14T05:35:12.728Z,75.56
2022-09-14T05:36:12.658Z,72.95
2022-09-14T05:37:12.654Z,76.63
2022-09-14T05:38:12.657Z,74.53
2022-09-14T05:39:12.623Z,73.68
2022-09-14T05:40:12.759Z,73.91
2022-09-14T05:41:12.624Z,75.78
2022-09-14T05:42:12.617Z,74.93
2022-09-14T05:43:12.600Z,76.96
2022-09-14T05:44:12.575Z,75.55
2022-09-14T05:45:12.588Z,74.60
2022-09-14T05:46:12.655Z,70.97
2022-09-14T05:47:12.568Z,76.81
2022-09-14T05:48:12.560Z,73.39
2022-09-14T05:49:12.564Z,74.94
2022-09-14T05:50:12.576Z,73.03
2022-09-14T05:51:12.552Z,71.45
2022-09-14T05:52:12.548Z,72.47
2022-09-14T05:53:12.715Z,72.78
2022-09-14T05:54:12.523Z,72.78
2022-09-14T05:55:12.509Z,73.44
2022-09-14T05:56:12.513Z,72.50
2022-09-14T05:57:12.531Z,71.17
2022-09-14T05:58:12.599Z,72.25
2022-09-14T05:59:12.482Z,75.95
2022-09-14T06:00:12.496Z,73.54
2022-09-14T06:01:12.477Z,72.11
2022-09-14T06:02:16.325Z,71.27
2022-09-14T06:03:14.494Z,76.30
2022-09-14T06:04:12.461Z,72.50
2022-09-14T06:05:12.501Z,71.43
2022-09-14T06:06:12.442Z,73.18
2022-09-14T06:07:18.800Z,73.47
2022-09-14T06:08:14.454Z,76.73
2022-09-14T06:09:12.422Z,70.72
2022-09-14T06:10:12.453Z,74.87
2022-09-14T06:11:12.418Z,74.36
2022-09-14T06:12:12.407Z,75.48
2022-09-14T06:13:12.444Z,77.45
2022-09-14T06:14:12.403Z,76.20
2022-09-14T06:15:12.404Z,76.27
2022-09-14T06:16:12.377Z,70.20
2022-09-14T06:17:12.360Z,73.20
2022-09-14T06:18:12.357Z,72.40
2022-09-14T06:19:12.390Z,72.18
2022-09-14T06:20:12.344Z,68.79
2022-09-14T06:21:12.354Z,72.34
2022-09-14T06:22:12.326Z,71.41
2022-09-14T06:23:12.346Z,75.74
2022-09-14T06:24:12.322Z,76.72
2022-09-14T06:25:12.318Z,73.88
2022-09-14T06:26:12.302Z,75.49
2022-09-14T06:27:12.312Z,74.14
2022-09-14T06:28:12.295Z,68.75
2022-09-14T06:29:12.324Z,73.90
2022-09-14T06:30:13.044Z,76.83
2022-09-14T06:31:12.268Z,75.54
2022-09-14T06:32:12.274Z,73.41
2022-09-14T06:33:12.255Z,71.30
2022-09-14T06:34:12.291Z,70.77
2022-09-14T06:35:12.607Z,74.63
2022-09-14T06:36:13.239Z,75.76
2022-09-14T06:37:12.242Z,73.14
2022-09-14T06:38:12.249Z,73.99
2022-09-14T06:39:12.244Z,74.03
2022-09-14T06:40:12.288Z,73.93
2022-09-14T06:41:12.201Z,73.23
2022-09-14T06:42:12.186Z,74.98
2022-09-14T06:43:12.195Z,78.05
2022-09-14T06:44:12.194Z,69.32
2022-09-14T06:45:12.190Z,73.77
2022-09-14T06:46:12.178Z,70.83
2022-09-14T06:47:12.178Z,77.01
2022-09-14T06:48:12.158Z,72.09
2022-09-14T06:49:12.134Z,75.21
2022-09-14T06:50:12.153Z,72.21
2022-09-14T06:51:12.120Z,73.60
2022-09-14T06:52:12.145Z,70.50
2022-09-14T06:53:12.138Z,72.28
2022-09-14T06:54:12.106Z,74.07
2022-09-14T06:55:12.110Z,73.58
2022-09-14T06:56:12.166Z,71.37
2022-09-14T06:57:12.091Z,73.66
2022-09-14T06:58:12.094Z,75.44
2022-09-14T06:59:12.078Z,75.97
2022-09-14T07:00:12.078Z,73.29
2022-09-14T07:01:12.115Z,73.06
2022-09-14T07:02:12.144Z,76.07
2022-09-14T07:03:12.119Z,71.24
2022-09-14T07:04:12.046Z,74.55
2022-09-14T07:05:12.054Z,73.63
2022-09-14T07:06:12.050Z,72.77
2022-09-14T07:07:12.062Z,73.45
2022-09-14T07:08:12.525Z,73.59
2022-09-14T07:09:13.017Z,74.13
2022-09-14T07:10:12.005Z,72.12
2022-09-14T07:11:12.191Z,76.49
2022-09-14T07:12:12.017Z,74.94
2022-09-14T07:13:11.994Z,75.69
2022-09-14T07:14:11.987Z,70.71
2022-09-14T07:15:11.974Z,71.90
2022-09-14T07:16:11.979Z,73.35
2022-09-14T07:17:12.026Z,76.72
2022-09-14T07:18:11.970Z,69.98
2022-09-14T07:19:11.962Z,74.48
2022-09-14T07:20:11.965Z,76.39
2022-09-14T07:21:11.943Z,74.33
2022-09-14T07:22:11.949Z,73.71
2022-09-14T07:23:11.949Z,75.02
2022-09-14T07:24:11.943Z,73.04
2022-09-14T07:25:11.915Z,69.33
2022-09-14T07:26:11.938Z,74.92
2022-09-14T07:27:11.920Z,71.85
2022-09-14T07:28:11.912Z,69.08
2022-09-14T07:29:11.919Z,68.78
2022-09-14T07:30:11.917Z,76.86
2022-09-14T07:31:11.923Z,75.09
2022-09-14T07:32:11.914Z,72.96
2022-09-14T07:33:11.874Z,75.26
2022-09-14T07:34:11.852Z,69.74
2022-09-14T07:35:11.855Z,72.71
2022-09-14T07:36:11.847Z,75.80
2022-09-14T07:37:11.859Z,71.43
2022-09-14T07:38:11.858Z,76.13
2022-09-14T07:39:11.838Z,66.32
2022-09-14T07:40:11.864Z,73.19
2022-09-14T07:41:11.847Z,76.40
2022-09-14T07:42:11.835Z,75.68
2022-09-14T07:43:11.815Z,73.50
2022-09-14T07:44:11.832Z,72.64
2022-09-14T07:45:11.784Z,72.92
2022-09-14T07:46:11.816Z,76.62
2022-09-14T07:47:11.790Z,75.45
2022-09-14T07:48:11.796Z,71.75
2022-09-14T07:49:11.793Z,72.33
2022-09-14T07:50:11.751Z,76.24
2022-09-14T07:51:11.762Z,74.11
2022-09-14T07:52:11.747Z,72.74
2022-09-14T07:53:11.738Z,72.30
2022-09-14T07:54:11.743Z,76.34
2022-09-14T07:55:11.763Z,73.93
2022-09-14T07:56:11.743Z,66.53
2022-09-14T07:57:11.705Z,74.80
2022-09-14T07:58:12.743Z,76.06
2022-09-14T07:59:34.631Z,74.74
2022-09-14T08:00:13.721Z,70.37
2022-09-14T08:01:11.751Z,75.34
2022-09-14T08:02:11.709Z,73.39
2022-09-14T08:03:11.671Z,75.03
2022-09-14T08:04:11.669Z,74.30
2022-09-14T08:05:11.662Z,75.03
2022-09-14T08:06:11.686Z,75.79
2022-09-14T08:07:11.634Z,73.23
2022-09-14T08:08:11.638Z,68.95
2022-09-14T08:09:11.674Z,75.27
2022-09-14T08:10:11.647Z,74.34
2022-09-14T08:11:11.623Z,71.35
2022-09-14T08:12:11.649Z,72.59
2022-09-14T08:13:11.598Z,72.58
2022-09-14T08:14:11.721Z,75.04
2022-09-14T08:15:11.602Z,71.91
2022-09-14T08:16:12.604Z,72.34
2022-09-14T08:17:11.582Z,76.30
2022-09-14T08:18:11.636Z,76.49
2022-09-14T08:19:11.562Z,74.95
2022-09-14T08:20:11.563Z,75.08
2022-09-14T08:21:11.572Z,75.62
2022-09-14T08:22:11.575Z,76.01
2022-09-14T08:23:11.541Z,72.95
2022-09-14T08:24:11.530Z,73.52
2022-09-14T08:25:11.538Z,72.75
2022-09-14T08:26:11.523Z,76.29
2022-09-14T08:27:12.327Z,74.17
2022-09-14T08:28:11.512Z,77.35
2022-09-14T08:29:11.519Z,76.00
2022-09-14T08:30:37.527Z,73.99
2022-09-14T08:31:11.593Z,74.52
2022-09-14T08:32:11.567Z,74.06
2022-09-14T08:33:11.497Z,69.46
2022-09-14T08:34:11.500Z,77.30
2022-09-14T08:35:11.491Z,75.16
2022-09-14T08:36:11.565Z,76.55
2022-09-14T08:37:11.996Z,74.67
2022-09-14T08:38:11.452Z,78.08
2022-09-14T08:39:11.441Z,76.41
2022-09-14T08:40:11.436Z,74.56
2022-09-14T08:41:11.416Z,74.37
2022-09-14T08:42:11.422Z,76.47
2022-09-14T08:43:11.416Z,70.52
2022-09-14T08:44:11.400Z,71.55
2022-09-14T08:45:11.404Z,72.60
2022-09-14T08:46:11.433Z,74.95
2022-09-14T08:47:11.371Z,73.25
2022-09-14T08:48:11.396Z,70.71
2022-09-14T08:49:11.401Z,71.63
2022-09-14T08:50:11.382Z,70.98
2022-09-14T08:51:11.347Z,73.04
2022-09-14T08:52:11.344Z,76.41
2022-09-14T08:53:11.341Z,73.90
2022-09-14T08:54:11.324Z,77.39
2022-09-14T08:55:11.352Z,73.33
2022-09-14T08:56:11.320Z,74.54
2022-09-14T08:57:11.311Z,75.75
2022-09-14T08:58:11.308Z,69.86
2022-09-14T08:59:11.309Z,72.09
2022-09-14T09:00:11.352Z,75.75
2022-09-14T09:01:11.362Z,70.65
2022-09-14T09:02:11.398Z,77.79
2022-09-14T09:03:11.272Z,74.30
2022-09-14T09:04:11.355Z,73.17
2022-09-14T09:05:45.054Z,75.51
2022-09-14T09:06:15.593Z,71.00
2022-09-14T09:07:12.226Z,74.51
2022-09-14T09:08:11.246Z,70.90
2022-09-14T09:09:11.221Z,64.08
2022-09-14T09:10:11.305Z,73.39
2022-09-14T09:11:11.232Z,73.91
2022-09-14T09:12:11.212Z,74.47
2022-09-14T09:13:12.201Z,75.09
2022-09-14T09:14:14.058Z,72.73
2022-09-14T09:15:12.179Z,67.99
2022-09-14T09:16:11.260Z,70.56
2022-09-14T09:17:11.183Z,73.08
2022-09-14T09:18:11.170Z,76.13
2022-09-14T09:19:11.163Z,63.15
2022-09-14T09:20:11.149Z,73.95
2022-09-14T09:21:11.154Z,71.87
2022-09-14T09:22:11.187Z,69.53
2022-09-14T09:23:11.134Z,75.76
2022-09-14T09:24:11.177Z,70.27
2022-09-14T09:25:11.116Z,76.07
2022-09-14T09:26:11.121Z,72.55
2022-09-14T09:27:11.162Z,71.30
2022-09-14T09:28:11.125Z,75.03
2022-09-14T09:29:11.136Z,73.67
2022-09-14T09:30:11.113Z,72.63
2022-09-14T09:31:14.650Z,71.73
2022-09-14T09:32:12.103Z,73.75
2022-09-14T09:33:11.077Z,73.80
2022-09-14T09:34:11.161Z,70.50
2022-09-14T09:35:11.076Z,75.13
2022-09-14T09:36:11.088Z,71.46
2022-09-14T09:37:11.049Z,73.45
2022-09-14T09:38:11.093Z,72.85
2022-09-14T09:39:11.039Z,70.18
2022-09-14T09:40:11.122Z,75.33
2022-09-14T09:41:11.028Z,74.94
2022-09-14T09:42:11.025Z,71.40
2022-09-14T09:43:11.016Z,72.55
2022-09-14T09:44:11.002Z,73.29
2022-09-14T09:45:11.008Z,72.63
2022-09-14T09:46:11.044Z,76.60
2022-09-14T09:47:11.096Z,75.01
2022-09-14T09:48:10.966Z,74.39
2022-09-14T09:49:11.011Z,73.78
2022-09-14T09:50:10.968Z,73.14
2022-09-14T09:51:12.009Z,73.06
2022-09-14T09:52:11.009Z,64.88
2022-09-14T09:53:11.001Z,72.10
2022-09-14T09:54:10.970Z,71.51
2022-09-14T09:55:10.937Z,76.20
2022-09-14T09:56:10.972Z,74.53
2022-09-14T09:57:10.928Z,73.42
2022-09-14T09:58:10.914Z,74.54
2022-09-14T09:59:10.928Z,73.76
2022-09-14T10:00:10.901Z,76.95
2022-09-14T10:01:12.616Z,69.58
2022-09-14T10:02:11.967Z,73.44
2022-09-14T10:03:10.879Z,75.66
2022-09-14T10:04:10.868Z,71.08
2022-09-14T10:05:10.926Z,75.86
2022-09-14T10:06:10.863Z,73.15
2022-09-14T10:07:10.847Z,72.53
2022-09-14T10:08:11.695Z,73.83
2022-09-14T10:09:11.863Z,74.17
2022-09-14T10:10:10.864Z,74.79
2022-09-14T10:11:10.843Z,74.75
2022-09-14T10:12:10.820Z,78.09
2022-09-14T10:13:10.807Z,77.18
2022-09-14T10:14:10.851Z,75.98
2022-09-14T10:15:10.814Z,75.40
2022-09-14T10:16:10.844Z,77.35
2022-09-14T10:17:10.785Z,73.79
2022-09-14T10:18:10.788Z,71.81
2022-09-14T10:19:10.787Z,75.83
2022-09-14T10:20:10.814Z,73.20
2022-09-14T10:21:10.777Z,71.62
2022-09-14T10:22:13.510Z,73.41
2022-09-14T10:23:11.773Z,76.76
2022-09-14T10:24:10.741Z,73.59
2022-09-14T10:25:10.889Z,76.45
2022-09-14T10:26:10.774Z,74.60
2022-09-14T10:27:10.725Z,73.63
2022-09-14T10:28:10.708Z,72.99
2022-09-14T10:29:10.717Z,74.27
2022-09-14T10:30:10.758Z,71.63
2022-09-14T10:31:10.774Z,75.73
2022-09-14T10:32:10.724Z,72.36
2022-09-14T10:33:10.696Z,77.63
2022-09-14T10:34:14.306Z,72.79
2022-09-14T10:35:11.682Z,74.43
2022-09-14T10:36:10.664Z,76.04
2022-09-14T10:37:11.780Z,75.56
2022-09-14T10:38:10.668Z,72.73
2022-09-14T10:39:10.715Z,71.24
2022-09-14T10:40:10.758Z,70.54
2022-09-14T10:41:10.664Z,72.68
2022-09-14T10:42:10.633Z,75.55
2022-09-14T10:43:10.628Z,75.42
2022-09-14T10:44:10.616Z,74.96
2022-09-14T10:45:10.637Z,71.82
2022-09-14T10:46:10.670Z,71.06
2022-09-14T10:47:10.605Z,75.42
2022-09-14T10:48:10.596Z,76.88
2022-09-14T10:49:10.608Z,76.26
2022-09-14T10:50:10.580Z,77.91
2022-09-14T10:51:10.600Z,76.45
2022-09-14T10:52:10.561Z,74.07
2022-09-14T10:53:10.568Z,75.86
2022-09-14T10:54:10.584Z,76.69
2022-09-14T10:55:10.567Z,73.05
2022-09-14T10:56:10.544Z,74.95
2022-09-14T10:57:10.548Z,74.63
2022-09-14T10:58:14.499Z,75.78
2022-09-14T10:59:12.517Z,76.56
2022-09-14T11:00:10.562Z,78.29
2022-09-14T11:01:10.505Z,77.44
2022-09-14T11:02:10.671Z,76.49
2022-09-14T11:03:10.600Z,73.21
2022-09-14T11:04:10.541Z,77.20
2022-09-14T11:05:10.477Z,75.48
2022-09-14T11:06:10.481Z,76.13
2022-09-14T11:07:10.478Z,76.97
2022-09-14T11:08:10.469Z,75.99
2022-09-14T11:09:10.461Z,78.10
2022-09-14T11:10:10.456Z,78.18
2022-09-14T11:11:11.550Z,76.99
2022-09-14T11:12:11.429Z,75.50
2022-09-14T11:13:10.429Z,76.24
2022-09-14T11:14:10.501Z,77.30
2022-09-14T11:15:10.457Z,76.28
2022-09-14T11:16:10.427Z,76.87
2022-09-14T11:17:10.388Z,75.18
2022-09-14T11:18:10.385Z,77.92
2022-09-14T11:19:10.428Z,76.02
2022-09-14T11:20:10.421Z,78.74
2022-09-14T11:21:10.401Z,79.72
2022-09-14T11:22:10.513Z,78.84
2022-09-14T11:23:10.417Z,78.32
2022-09-14T11:24:10.372Z,78.25
2022-09-14T11:25:10.337Z,78.35
2022-09-14T11:26:10.377Z,78.73
2022-09-14T11:27:10.469Z,75.66
2022-09-14T11:28:10.399Z,74.62
2022-09-14T11:29:10.347Z,77.76
2022-09-14T11:30:10.310Z,78.90
2022-09-14T11:31:10.385Z,78.22
2022-09-14T11:32:21.062Z,71.46
2022-09-14T11:33:12.282Z,74.95
2022-09-14T11:34:10.328Z,76.45
2022-09-14T11:35:10.326Z,75.76
2022-09-14T11:36:10.274Z,79.54
2022-09-14T11:37:10.292Z,77.20
2022-09-14T11:38:10.249Z,78.64
2022-09-14T11:39:10.249Z,79.24
2022-09-14T11:40:10.509Z,77.73
2022-09-14T11:41:10.245Z,79.01
2022-09-14T11:42:10.222Z,75.18
2022-09-14T11:43:10.216Z,77.92
2022-09-14T11:44:10.258Z,76.92
2022-09-14T11:45:10.215Z,75.31
2022-09-14T11:46:10.269Z,78.02
2022-09-14T11:47:10.204Z,78.82
2022-09-14T11:48:40.911Z,79.50
2022-09-14T11:49:12.173Z,74.30
2022-09-14T11:50:10.214Z,78.33
2022-09-14T11:51:10.169Z,76.67
2022-09-14T11:52:10.156Z,72.67
2022-09-14T11:53:10.180Z,79.12
2022-09-14T11:54:10.148Z,77.02
2022-09-14T11:55:10.144Z,77.60
2022-09-14T11:56:10.195Z,65.19
2022-09-14T11:57:10.131Z,80.08
2022-09-14T11:58:10.213Z,76.26
2022-09-14T11:59:11.024Z,74.47
2022-09-14T12:00:10.109Z,78.87
2022-09-14T12:01:10.701Z,76.98
2022-09-14T12:02:10.122Z,77.76
2022-09-14T12:03:10.175Z,78.98
2022-09-14T12:04:10.120Z,75.52
2022-09-14T12:05:10.069Z,76.26
2022-09-14T12:06:10.069Z,80.03
2022-09-14T12:07:10.079Z,77.11
2022-09-14T12:08:10.051Z,75.08
2022-09-14T12:09:10.044Z,75.56
2022-09-14T12:10:10.124Z,76.54
2022-09-14T12:11:10.080Z,75.96
2022-09-14T12:12:10.032Z,74.45
2022-09-14T12:13:10.016Z,75.48
2022-09-14T12:14:10.007Z,74.18
2022-09-14T12:15:10.002Z,73.75
2022-09-14T12:16:10.111Z,76.23
2022-09-14T12:17:29.006Z,75.54
2022-09-14T12:18:11.979Z,78.16
2022-09-14T12:19:10.008Z,76.46
2022-09-14T12:20:10.032Z,79.01
2022-09-14T12:21:09.967Z,75.40
2022-09-14T12:22:09.960Z,78.05
2022-09-14T12:23:09.981Z,78.38
2022-09-14T12:24:09.990Z,79.21
2022-09-14T12:25:09.945Z,78.43
2022-09-14T12:26:09.953Z,78.47
2022-09-14T12:27:09.991Z,76.90
2022-09-14T12:28:09.966Z,78.66
2022-09-14T12:29:09.897Z,76.66
2022-09-14T12:30:09.933Z,78.19
2022-09-14T12:31:09.968Z,73.02
2022-09-14T12:32:09.931Z,78.22
2022-09-14T12:33:09.948Z,73.34
2022-09-14T12:34:09.868Z,78.22
2022-09-14T12:35:09.865Z,77.27
2022-09-14T12:36:09.871Z,78.04
2022-09-14T12:37:12.199Z,79.63
2022-09-14T12:38:10.859Z,80.07
2022-09-14T12:39:10.531Z,74.52
2022-09-14T12:40:09.911Z,75.29
2022-09-14T12:41:09.843Z,76.77
2022-09-14T12:42:09.847Z,78.68
2022-09-14T12:43:09.834Z,79.10
2022-09-14T12:44:09.833Z,76.45
2022-09-14T12:45:10.868Z,77.76
2022-09-14T12:46:09.924Z,77.39
2022-09-14T12:47:09.799Z,75.76
2022-09-14T12:48:09.796Z,74.62
2022-09-14T12:49:09.790Z,76.53
2022-09-14T12:50:09.783Z,77.81
2022-09-14T12:51:09.758Z,77.60
2022-09-14T12:52:09.781Z,76.35